Time;durP1;ratioP1;P1;durP2;ratioP2;P2;SDS_P1;SDS_P2;PMS_P1;PMS_P2;Temp;Humidity;BMP_temperature;BMP_pressure;BME280_temperature;BME280_humidity;BME280_pressure;Samples;Min_cycle;Max_cycle;Signal;HPM_P1;HPM_P2
2021/05/12 00:01:42;;;;;;;12.10;6.00;;;;;;;14.52;100.00;100032.19;5005687;28;20069;-76
2021/05/12 00:04:07;;;;;;;12.82;6.45;;;;;;;14.33;100.00;100036.94;5005206;28;20421;-76
2021/05/12 00:06:33;;;;;;;13.02;5.70;;;;;;;14.25;100.00;100042.72;4998595;28;20057;-76
2021/05/12 00:08:58;;;;;;;12.20;6.13;;;;;;;14.14;100.00;100040.09;4999737;28;20058;-76
2021/05/12 00:11:24;;;;;;;10.40;6.60;;;;;;;14.01;100.00;100049.03;5009631;28;20034;-76
2021/05/12 00:13:50;;;;;;;10.25;6.45;;;;;;;14.22;100.00;100040.81;4998450;28;20549;-76
2021/05/12 00:16:16;;;;;;;12.63;6.68;;;;;;;14.12;100.00;100055.19;4997054;28;20038;-77
2021/05/12 00:18:44;;;;;;;12.40;6.65;;;;;;;14.10;100.00;100055.56;5004688;28;20099;-76
2021/05/12 00:21:13;;;;;;;11.15;6.75;;;;;;;14.16;100.00;100056.72;4998025;28;20112;-76
2021/05/12 00:23:47;;;;;;;12.60;6.65;;;;;;;14.07;100.00;100069.88;4999147;28;20030;-76
2021/05/12 00:26:12;;;;;;;12.00;6.85;;;;;;;14.29;100.00;100068.69;5001851;28;20041;-76
2021/05/12 00:28:38;;;;;;;10.30;6.25;;;;;;;14.24;100.00;100071.78;5005129;28;20037;-76
2021/05/12 00:31:04;;;;;;;12.35;7.00;;;;;;;14.19;100.00;100063.25;4989909;28;20030;-76
2021/05/12 00:33:29;;;;;;;15.70;7.28;;;;;;;14.21;100.00;100067.13;4998052;28;20037;-76
2021/05/12 00:35:54;;;;;;;13.82;7.38;;;;;;;14.28;100.00;100050.91;5002216;28;20033;-76
2021/05/12 00:38:20;;;;;;;11.85;6.35;;;;;;;14.16;100.00;100043.16;5000915;28;20034;-76
2021/05/12 00:40:46;;;;;;;14.63;7.00;;;;;;;14.19;100.00;100053.22;4996021;28;20027;-76
2021/05/12 00:43:11;;;;;;;14.07;7.05;;;;;;;14.26;100.00;100039.66;4993915;28;20048;-76
2021/05/12 00:45:37;;;;;;;9.77;6.60;;;;;;;14.15;100.00;100051.69;4996447;28;20077;-77
2021/05/12 00:48:02;;;;;;;13.05;7.13;;;;;;;14.11;100.00;100050.94;4988005;28;20034;-76
2021/05/12 00:50:29;;;;;;;11.20;6.70;;;;;;;14.03;100.00;100060.25;5001170;28;20034;-76
2021/05/12 00:52:55;;;;;;;13.98;6.75;;;;;;;13.74;100.00;100070.38;4993166;28;20038;-76
2021/05/12 00:55:21;;;;;;;15.25;6.70;;;;;;;13.93;100.00;100072.66;4979304;28;20122;-76
2021/05/12 00:57:49;;;;;;;10.68;6.57;;;;;;;14.06;100.00;100065.66;4986037;28;20035;-76
2021/05/12 01:00:16;;;;;;;11.23;6.68;;;;;;;13.72;100.00;100074.63;4978758;28;20478;-75
2021/05/12 01:02:42;;;;;;;8.15;6.38;;;;;;;13.85;100.00;100071.13;4974377;28;20043;-75
2021/05/12 01:05:28;;;;;;;12.60;7.28;;;;;;;13.63;100.00;100064.19;5000873;28;20038;-76
2021/05/12 01:07:53;;;;;;;11.00;6.53;;;;;;;13.66;100.00;100071.56;4999207;28;20074;-75
2021/05/12 01:10:20;;;;;;;10.05;6.78;;;;;;;13.70;100.00;100075.03;5003655;28;20045;-75
2021/05/12 01:12:46;;;;;;;10.82;6.30;;;;;;;13.97;100.00;100073.41;5033436;22;20098;-74
2021/05/12 01:15:32;;;;;;;12.35;6.82;;;;;;;13.79;100.00;100077.31;5009300;28;20049;-74
2021/05/12 01:18:26;;;;;;;14.48;6.80;;;;;;;13.91;100.00;100069.56;4935298;29;20051;-74
2021/05/12 01:21:03;;;;;;;12.73;7.13;;;;;;;13.84;100.00;100069.56;4931487;29;20047;-74
2021/05/12 01:23:31;;;;;;;13.23;6.90;;;;;;;13.92;100.00;100068.38;4953989;28;20090;-74
2021/05/12 01:25:58;;;;;;;12.25;7.22;;;;;;;14.02;100.00;100064.88;4964752;28;20074;-73
2021/05/12 01:28:31;;;;;;;11.38;7.18;;;;;;;13.97;100.00;100073.41;4971262;28;20521;-74
2021/05/12 01:31:02;;;;;;;13.32;7.72;;;;;;;13.95;100.00;100069.56;4974873;28;20031;-74
2021/05/12 01:33:28;;;;;;;9.38;6.55;;;;;;;13.84;100.00;100074.22;4975076;28;20038;-74
2021/05/12 01:35:54;;;;;;;13.02;7.97;;;;;;;13.97;100.00;100073.41;4960643;28;20105;-74
2021/05/12 01:38:20;;;;;;;11.38;7.45;;;;;;;13.93;100.00;100085.41;4972185;28;20830;-74
2021/05/12 01:40:46;;;;;;;11.93;7.18;;;;;;;13.89;100.00;100077.31;4958689;28;20113;-74
2021/05/12 01:43:13;;;;;;;14.02;7.10;;;;;;;13.75;100.00;100087.38;4974076;28;20055;-74
2021/05/12 01:45:39;;;;;;;13.05;7.22;;;;;;;13.73;100.00;100095.88;4965812;28;20102;-74
2021/05/12 01:48:10;;;;;;;11.73;7.10;;;;;;;13.71;100.00;100103.63;4971222;28;20542;-74
2021/05/12 01:50:36;;;;;;;13.27;6.85;;;;;;;13.88;100.00;100097.41;4972963;28;20393;-73
2021/05/12 01:53:03;;;;;;;10.38;6.60;;;;;;;13.70;100.00;100093.97;4969118;28;20035;-73
2021/05/12 01:55:29;;;;;;;13.00;6.68;;;;;;;13.79;100.00;100098.97;5020639;28;20188;-73
2021/05/12 01:57:54;;;;;;;12.30;6.78;;;;;;;13.84;100.00;100095.88;5002890;28;20060;-71
2021/05/12 02:00:21;;;;;;;11.15;6.18;;;;;;;13.97;100.00;100088.88;5032894;28;20026;-74
2021/05/12 02:02:47;;;;;;;16.23;6.97;;;;;;;13.94;100.00;100089.66;5027557;28;20044;-73
2021/05/12 02:05:15;;;;;;;10.90;7.15;;;;;;;14.02;100.00;100081.13;5034176;28;20030;-74
2021/05/12 02:07:40;;;;;;;12.18;6.85;;;;;;;13.88;100.00;100075.00;5034284;28;20032;-73
2021/05/12 02:10:07;;;;;;;14.55;7.40;;;;;;;13.88;100.00;100067.63;5025950;28;20065;-74
2021/05/12 02:12:32;;;;;;;10.43;6.57;;;;;;;13.81;100.00;100069.56;5031071;28;20033;-73
2021/05/12 02:14:58;;;;;;;13.18;6.85;;;;;;;13.60;100.00;100081.22;5017705;28;20040;-74
2021/05/12 02:17:23;;;;;;;14.50;6.68;;;;;;;13.63;100.00;100085.84;5034548;28;20124;-74
2021/05/12 02:19:49;;;;;;;11.52;6.80;;;;;;;13.68;100.00;100077.34;5031576;28;20028;-73
2021/05/12 02:22:14;;;;;;;11.68;6.65;;;;;;;13.69;100.00;100073.47;5030568;28;20095;-74
2021/05/12 02:24:40;;;;;;;12.70;6.57;;;;;;;13.75;100.00;100079.25;5034593;28;20138;-74
2021/05/12 02:27:06;;;;;;;10.75;6.32;;;;;;;13.96;100.00;100076.50;5031709;28;20059;-74
2021/05/12 02:29:31;;;;;;;14.38;6.75;;;;;;;13.85;100.00;100071.13;5032960;28;20544;-74
2021/05/12 02:31:57;;;;;;;12.07;6.60;;;;;;;13.67;100.00;100075.78;5026923;28;20038;-71
2021/05/12 02:34:23;;;;;;;12.35;6.15;;;;;;;13.67;100.00;100077.72;5035299;28;20179;-74
2021/05/12 02:36:48;;;;;;;8.98;5.75;;;;;;;13.55;100.00;100078.91;5035839;28;20455;-74
2021/05/12 02:39:14;;;;;;;14.60;6.38;;;;;;;13.54;100.00;100080.84;5028862;28;20033;-73
2021/05/12 02:41:39;;;;;;;11.57;6.15;;;;;;;13.82;100.00;100082.72;5034218;28;20029;-74
2021/05/12 02:44:05;;;;;;;8.98;5.53;;;;;;;13.73;100.00;100076.94;5034941;28;20125;-74
2021/05/12 02:46:30;;;;;;;9.80;5.97;;;;;;;13.65;100.00;100070.00;5032107;28;20051;-73
2021/05/12 02:48:56;;;;;;;12.23;5.95;;;;;;;13.51;100.00;100078.16;5033668;28;20112;-74
2021/05/12 02:51:21;;;;;;;9.07;5.45;;;;;;;13.71;100.00;100060.31;5035674;28;20040;-74
2021/05/12 02:53:47;;;;;;;11.32;5.97;;;;;;;13.82;100.00;100063.03;5018153;28;20033;-74
2021/05/12 02:56:12;;;;;;;12.48;5.93;;;;;;;13.76;100.00;100056.47;5022598;28;20113;-73
2021/05/12 02:58:38;;;;;;;8.85;5.65;;;;;;;13.74;100.00;100064.19;5026956;28;20034;-74
2021/05/12 03:01:03;;;;;;;11.60;6.05;;;;;;;13.74;100.00;100048.75;5035510;28;20067;-74
2021/05/12 03:03:29;;;;;;;10.35;5.53;;;;;;;13.85;100.00;100049.47;5031814;28;20080;-73
2021/05/12 03:05:54;;;;;;;17.45;5.97;;;;;;;13.95;100.00;100048.66;5024134;28;20070;-73
2021/05/12 03:08:20;;;;;;;9.82;5.68;;;;;;;13.91;100.00;100058.75;5029549;28;20026;-75
2021/05/12 03:10:46;;;;;;;12.55;6.07;;;;;;;13.89;100.00;100061.06;5013140;28;20021;-74
2021/05/12 03:13:11;;;;;;;8.95;5.60;;;;;;;13.79;100.00;100067.28;5031966;28;20393;-74
2021/05/12 03:15:37;;;;;;;11.05;5.75;;;;;;;13.59;100.00;100069.63;5020197;28;20038;-73
2021/05/12 03:18:04;;;;;;;10.68;5.35;;;;;;;13.48;100.00;100074.28;5033795;28;20033;-74
2021/05/12 03:20:30;;;;;;;10.35;5.68;;;;;;;13.59;100.00;100069.63;5023205;28;20057;-74
2021/05/12 03:22:56;;;;;;;11.70;6.53;;;;;;;13.61;100.00;100071.19;5014650;28;20399;-74
2021/05/12 03:25:22;;;;;;;12.43;6.05;;;;;;;13.67;100.00;100075.78;5031067;28;20324;-74
2021/05/12 03:27:48;;;;;;;9.93;6.40;;;;;;;13.71;100.00;100073.06;5032470;28;20029;-74
2021/05/12 03:30:18;;;;;;;12.95;7.47;;;;;;;13.81;100.00;100080.41;5034627;28;20014;-73
2021/05/12 03:32:44;;;;;;;14.43;7.68;;;;;;;13.69;100.00;100084.28;5030503;28;20033;-74
2021/05/12 03:35:10;;;;;;;14.63;8.02;;;;;;;13.86;100.00;100078.06;5019017;28;20493;-73
2021/05/12 03:37:35;;;;;;;15.80;9.10;;;;;;;13.99;100.00;100073.81;5026858;28;20444;-72
2021/05/12 03:40:01;;;;;;;18.05;10.07;;;;;;;13.94;100.00;100071.47;5019125;28;20041;-74
2021/05/12 03:42:27;;;;;;;21.45;10.13;;;;;;;13.59;100.00;100085.06;5019580;28;20121;-76
2021/05/12 03:44:52;;;;;;;17.98;10.98;;;;;;;13.66;100.00;100071.56;5019898;28;20041;-74
2021/05/12 03:47:18;;;;;;;20.65;11.43;;;;;;;13.63;100.00;100079.69;5019633;28;20034;-74
2021/05/12 03:49:43;;;;;;;17.27;10.93;;;;;;;13.61;100.00;100077.34;5021433;28;20037;-74
2021/05/12 03:52:09;;;;;;;16.10;10.30;;;;;;;13.61;100.00;100085.47;5016963;28;20033;-73
2021/05/12 03:54:34;;;;;;;20.73;11.38;;;;;;;13.85;100.00;100092.78;5010992;28;20101;-74
2021/05/12 03:57:00;;;;;;;21.45;12.15;;;;;;;13.81;100.00;100086.59;5024647;28;20140;-75
2021/05/12 03:59:25;;;;;;;22.95;11.70;;;;;;;13.71;100.00;100079.28;5023871;28;20030;-74
2021/05/12 04:01:51;;;;;;;19.80;12.07;;;;;;;13.72;100.00;100091.66;5020009;28;20066;-74
2021/05/12 04:04:17;;;;;;;23.02;12.50;;;;;;;13.74;100.00;100092.03;5033123;28;20081;-73
2021/05/12 04:06:45;;;;;;;22.15;12.02;;;;;;;13.60;100.00;100100.16;5024849;28;20022;-73
2021/05/12 04:09:11;;;;;;;20.20;12.00;;;;;;;13.54;100.00;100099.00;5015348;28;20624;-74
2021/05/12 04:11:37;;;;;;;21.27;13.27;;;;;;;13.63;100.00;100102.09;5010432;28;20410;-73
2021/05/12 04:14:04;;;;;;;25.15;13.25;;;;;;;13.78;100.00;100114.44;5030395;28;20025;-73
2021/05/12 04:16:31;;;;;;;25.52;13.48;;;;;;;13.67;100.00;100112.91;5019115;28;20029;-73
2021/05/12 04:18:56;;;;;;;24.30;13.20;;;;;;;13.45;100.00;100126.44;5018288;28;20042;-72
2021/05/12 04:21:22;;;;;;;28.30;14.38;;;;;;;13.54;100.00;100129.56;5023080;28;20022;-73
2021/05/12 04:23:47;;;;;;;22.92;13.50;;;;;;;13.59;100.00;100117.53;5024166;28;20077;-73
2021/05/12 04:26:13;;;;;;;25.30;14.20;;;;;;;13.76;100.00;100122.19;5027376;28;20104;-73
2021/05/12 04:28:38;;;;;;;22.40;13.57;;;;;;;13.89;100.00;100120.63;5029260;28;20049;-73
2021/05/12 04:31:04;;;;;;;24.35;14.25;;;;;;;13.80;100.00;100117.53;5029389;28;20022;-73
2021/05/12 04:33:29;;;;;;;29.35;15.13;;;;;;;13.69;100.00;100126.81;5028896;28;20116;-73
2021/05/12 04:35:55;;;;;;;24.75;15.38;;;;;;;13.92;100.00;100125.25;5032905;28;20021;-74
2021/05/12 04:38:20;;;;;;;28.90;14.88;;;;;;;13.67;100.00;100129.91;5027325;28;20030;-73
2021/05/12 04:40:46;;;;;;;29.23;15.43;;;;;;;13.77;100.00;100133.75;5013833;28;20114;-73
2021/05/12 04:43:12;;;;;;;30.73;15.18;;;;;;;13.81;100.00;100148.06;5028293;28;20034;-73
2021/05/12 04:45:37;;;;;;;30.60;15.18;;;;;;;13.72;100.00;100137.66;5016594;28;20033;-73
2021/05/12 04:48:03;;;;;;;27.08;15.40;;;;;;;13.52;100.00;100133.78;5001398;28;20037;-73
2021/05/12 04:50:31;;;;;;;26.15;15.13;;;;;;;13.69;100.00;100130.31;4998506;28;20021;-73
2021/05/12 04:52:57;;;;;;;30.55;15.57;;;;;;;13.58;100.00;100137.66;5015054;28;20040;-73
2021/05/12 04:55:24;;;;;;;32.58;15.60;;;;;;;13.82;100.00;100134.13;4998373;28;20033;-73
2021/05/12 04:57:49;;;;;;;31.42;15.70;;;;;;;13.76;100.00;100133.00;5008880;28;20546;-75
2021/05/12 05:00:15;;;;;;;32.88;15.70;;;;;;;13.75;100.00;100134.16;5013708;28;20025;-72
2021/05/12 05:02:43;;;;;;;32.35;15.65;;;;;;;13.75;100.00;100133.38;5023529;28;20080;-71
2021/05/12 05:05:12;;;;;;;29.67;16.10;;;;;;;14.00;100.00;100132.19;5026482;28;20033;-75
2021/05/12 05:07:37;;;;;;;29.10;15.40;;;;;;;13.96;100.00;100127.94;5025486;28;20053;-75
2021/05/12 05:10:04;;;;;;;31.38;15.45;;;;;;;14.18;100.00;100121.31;5020374;28;20092;-74
2021/05/12 05:12:29;;;;;;;29.75;15.30;;;;;;;14.03;100.00;100115.16;5014211;28;20159;-74
2021/05/12 05:14:55;;;;;;;24.77;14.15;;;;;;;14.07;100.00;100120.56;5017437;28;20548;-75
2021/05/12 05:17:21;;;;;;;30.50;14.43;;;;;;;14.17;100.00;100114.34;5023732;28;20128;-74
2021/05/12 05:19:47;;;;;;;27.00;13.93;;;;;;;14.01;100.00;100119.44;5031810;28;20128;-75
2021/05/12 05:22:14;;;;;;;28.75;14.40;;;;;;;13.71;100.00;100119.88;5029118;28;20081;-75
2021/05/12 05:24:40;;;;;;;24.80;13.50;;;;;;;13.89;100.00;100131.44;5024029;28;20489;-74
2021/05/12 05:27:05;;;;;;;24.30;13.57;;;;;;;13.94;100.00;100136.44;5026558;28;20111;-75
2021/05/12 05:29:31;;;;;;;28.23;14.32;;;;;;;14.16;100.00;100131.75;5020154;28;20110;-74
2021/05/12 05:31:56;;;;;;;25.08;13.00;;;;;;;14.17;100.00;100144.13;5026137;28;20529;-74
2021/05/12 05:34:40;;;;;;;26.95;14.60;;;;;;;14.20;100.00;100152.25;5017433;28;20056;-74
2021/05/12 05:37:25;;;;;;;30.88;15.15;;;;;;;14.19;100.00;100148.00;5011685;28;20056;-74
2021/05/12 05:40:09;;;;;;;32.80;16.05;;;;;;;14.26;100.00;100139.09;5026335;28;20096;-74
2021/05/12 05:43:07;;;;;;;32.25;17.38;;;;;;;14.28;100.00;100153.03;5025356;28;20053;-71
2021/05/12 05:45:51;;;;;;;29.08;16.48;;;;;;;14.07;100.00;100156.53;5022967;28;20044;-74
2021/05/12 05:48:40;;;;;;;33.47;17.70;;;;;;;14.11;100.00;100157.28;4992677;28;20037;-74
2021/05/12 05:51:24;;;;;;;34.47;18.02;;;;;;;14.23;100.00;100162.31;5031148;28;20500;-74
2021/05/12 05:54:08;;;;;;;30.27;17.50;;;;;;;14.22;100.00;100155.34;5020406;28;20107;-73
2021/05/12 05:56:52;;;;;;;29.40;16.38;;;;;;;14.22;100.00;100166.19;5021886;28;20043;-74
2021/05/12 05:59:36;;;;;;;23.80;14.48;;;;;;;14.30;100.00;100178.56;5030125;28;20520;-74
2021/05/12 06:02:20;;;;;;;27.10;15.52;;;;;;;14.36;100.00;100177.00;5017701;28;20111;-72
2021/05/12 06:05:04;;;;;;;27.83;15.38;;;;;;;14.28;100.00;100191.75;5023306;28;20072;-73
2021/05/12 06:07:48;;;;;;;29.42;16.00;;;;;;;14.30;100.00;100189.41;5025829;28;20048;-73
2021/05/12 06:10:32;;;;;;;31.27;17.85;;;;;;;14.45;100.00;100190.16;5022323;28;20052;-72
2021/05/12 06:13:16;;;;;;;33.92;17.65;;;;;;;14.20;100.00;100200.25;5020440;28;20537;-73
2021/05/12 06:16:02;;;;;;;30.73;16.58;;;;;;;14.20;100.00;100194.81;5011441;28;20044;-74
2021/05/12 06:18:48;;;;;;;28.17;16.80;;;;;;;14.20;100.00;100190.19;5024522;28;20377;-74
2021/05/12 06:21:32;;;;;;;25.38;15.88;;;;;;;14.39;100.00;100197.13;5028420;28;20095;-72
2021/05/12 06:24:16;;;;;;;30.02;16.48;;;;;;;14.16;100.00;100199.47;5029029;28;20053;-73
2021/05/12 06:27:02;;;;;;;25.80;15.05;;;;;;;13.87;100.00;100203.38;5025348;28;20453;-75
2021/05/12 06:29:45;;;;;;;25.73;16.17;;;;;;;13.92;100.00;100209.16;5029112;28;20567;-75
2021/05/12 06:32:30;;;;;;;28.48;15.45;;;;;;;14.15;100.00;100204.09;5019649;28;20087;-75
2021/05/12 06:35:14;;;;;;;24.45;15.05;;;;;;;14.07;100.00;100207.22;5028687;28;20099;-75
2021/05/12 06:37:58;;;;;;;26.10;15.57;;;;;;;14.07;100.00;100207.97;5023666;28;20521;-75
2021/05/12 06:40:24;;;;;;;30.77;16.15;;;;;;;14.30;100.00;100213.03;5019947;28;20029;-73
2021/05/12 06:42:49;;;;;;;28.02;16.45;;;;;;;14.39;100.00;100224.22;4994095;28;20125;-74
2021/05/12 06:45:18;;;;;;;27.08;16.05;;;;;;;14.31;100.00;100226.16;5023893;28;20421;-73
2021/05/12 06:47:45;;;;;;;23.65;15.57;;;;;;;13.93;100.00;100223.47;5025244;28;20029;-75
2021/05/12 06:50:10;;;;;;;25.63;15.88;;;;;;;14.10;100.00;100238.94;5025198;28;20067;-75
2021/05/12 06:52:36;;;;;;;32.45;16.02;;;;;;;14.42;100.00;100236.97;5011166;28;20033;-75
2021/05/12 06:55:02;;;;;;;28.23;15.65;;;;;;;14.48;100.00;100235.41;5023444;28;20073;-75
2021/05/12 06:57:28;;;;;;;25.88;15.43;;;;;;;14.34;100.00;100236.22;5011842;28;20044;-73
2021/05/12 06:59:53;;;;;;;25.88;14.45;;;;;;;14.32;100.00;100235.06;5028228;28;20024;-71
2021/05/12 07:02:19;;;;;;;27.80;14.27;;;;;;;14.21;100.00;100243.19;5004169;28;20502;-72
2021/05/12 07:04:44;;;;;;;21.60;13.60;;;;;;;14.29;100.00;100247.47;5027239;28;20116;-75
2021/05/12 07:07:10;;;;;;;25.98;12.90;;;;;;;14.44;100.00;100251.69;5027830;28;20036;-74
2021/05/12 07:09:35;;;;;;;22.13;12.43;;;;;;;14.49;100.00;100247.81;5022502;28;20040;-75
2021/05/12 07:14:34;;;;;;;23.15;12.68;;;;;;;14.45;100.00;100255.16;4940989;28;20043;-77
2021/05/12 07:16:59;;;;;;;24.23;11.88;;;;;;;14.62;100.00;100246.22;4950463;28;20030;-77
2021/05/12 07:19:25;;;;;;;24.00;11.75;;;;;;;14.64;100.00;100248.53;4950742;28;20058;-76
2021/05/12 07:21:51;;;;;;;20.20;11.43;;;;;;;14.60;100.00;100253.97;4948094;28;20043;-76
2021/05/12 07:24:16;;;;;;;18.40;11.00;;;;;;;14.73;100.00;100248.91;4954318;28;20528;-77
2021/05/12 07:26:42;;;;;;;16.42;10.43;;;;;;;14.30;100.00;100248.25;4952761;28;20071;-76
2021/05/12 07:29:08;;;;;;;19.67;9.73;;;;;;;14.66;100.00;100251.63;4946245;28;20132;-76
2021/05/12 07:31:33;;;;;;;15.93;9.63;;;;;;;14.66;100.00;100259.75;4951331;28;20041;-76
2021/05/12 07:33:59;;;;;;;15.00;8.93;;;;;;;14.69;100.00;100259.75;4948609;28;20039;-76
2021/05/12 07:36:25;;;;;;;14.88;8.73;;;;;;;14.78;100.00;100257.41;4947359;28;20618;-76
2021/05/12 07:38:50;;;;;;;13.50;8.50;;;;;;;14.64;100.00;100262.88;4950018;28;20510;-76
2021/05/12 07:41:15;;;;;;;14.57;9.10;;;;;;;14.72;100.00;100258.19;4951771;28;20396;-76
2021/05/12 07:43:42;;;;;;;19.05;9.07;;;;;;;14.81;100.00;100266.69;4948918;28;20042;-76
2021/05/12 07:46:07;;;;;;;13.90;8.98;;;;;;;14.65;100.00;100272.56;4934806;29;20038;-76
2021/05/12 07:48:33;;;;;;;14.25;9.65;;;;;;;14.87;100.00;100271.31;4950196;28;20039;-76
2021/05/12 07:50:58;;;;;;;18.30;8.93;;;;;;;14.59;100.00;100286.88;4948089;28;20033;-76
2021/05/12 07:53:24;;;;;;;19.00;9.20;;;;;;;14.67;100.00;100289.22;4949026;28;20073;-76
2021/05/12 07:55:50;;;;;;;15.55;9.23;;;;;;;14.59;100.00;100286.88;4952749;28;20035;-77
2021/05/12 07:58:16;;;;;;;18.42;9.55;;;;;;;14.72;100.00;100286.09;4953026;28;20518;-77
2021/05/12 08:00:44;;;;;;;17.88;9.43;;;;;;;14.71;100.00;100289.19;4949738;28;20119;-76
2021/05/12 08:03:10;;;;;;;21.13;10.63;;;;;;;14.92;100.00;100286.41;4950173;28;20038;-76
2021/05/12 08:05:36;;;;;;;17.52;9.95;;;;;;;14.92;100.00;100289.13;4963426;28;20082;-76
2021/05/12 08:08:01;;;;;;;18.48;10.48;;;;;;;14.89;100.00;100301.53;4954505;28;20066;-75
2021/05/12 08:10:27;;;;;;;18.80;11.25;;;;;;;14.94;100.00;100298.41;4947382;28;20058;-77
2021/05/12 08:12:52;;;;;;;21.13;11.52;;;;;;;14.99;100.00;100299.94;4945227;28;20489;-75
2021/05/12 08:15:18;;;;;;;22.70;11.10;;;;;;;14.76;100.00;100305.81;4951302;28;20452;-76
2021/05/12 08:17:43;;;;;;;21.98;11.13;;;;;;;14.69;100.00;100310.50;4944363;28;20037;-76
2021/05/12 08:20:09;;;;;;;21.40;11.50;;;;;;;14.85;100.00;100308.13;4948083;28;20043;-78
2021/05/12 08:22:35;;;;;;;21.63;11.13;;;;;;;15.09;100.00;100321.63;4950854;28;20027;-76
2021/05/12 08:25:00;;;;;;;19.92;10.32;;;;;;;15.27;100.00;100313.41;4934656;29;20047;-76
2021/05/12 08:27:26;;;;;;;17.80;10.55;;;;;;;15.24;100.00;100317.69;4944654;28;20050;-76
2021/05/12 08:29:54;;;;;;;19.52;10.85;;;;;;;15.15;100.00;100324.69;4952324;28;20011;-76
2021/05/12 08:32:19;;;;;;;22.77;10.75;;;;;;;15.06;100.00;100327.06;4950919;28;20400;-76
2021/05/12 08:34:45;;;;;;;18.55;10.00;;;;;;;15.03;100.00;100327.81;4948310;28;20035;-76
2021/05/12 08:37:11;;;;;;;19.45;9.77;;;;;;;14.79;100.00;100318.59;4946875;28;20692;-76
2021/05/12 08:39:37;;;;;;;22.77;10.48;;;;;;;15.08;100.00;100311.91;4949905;28;20031;-77
2021/05/12 08:42:03;;;;;;;21.95;10.05;;;;;;;15.24;100.00;100311.47;4952225;28;20035;-77
2021/05/12 08:44:32;;;;;;;20.00;9.80;;;;;;;15.25;100.00;100300.22;4959859;28;20384;-76
2021/05/12 08:46:59;;;;;;;17.38;9.48;;;;;;;15.20;100.00;100297.94;4950076;28;20035;-76
2021/05/12 08:49:26;;;;;;;21.98;9.93;;;;;;;15.50;100.00;100293.94;4950421;28;20046;-76
2021/05/12 08:51:52;;;;;;;19.65;10.57;;;;;;;15.45;100.00;100294.38;4950885;29;20392;-77
2021/05/12 08:54:18;;;;;;;17.33;9.13;;;;;;;15.54;100.00;100290.03;4951670;28;20483;-77
2021/05/12 08:56:44;;;;;;;22.48;10.50;;;;;;;15.58;100.00;100296.19;4966656;28;20119;-77
2021/05/12 08:59:09;;;;;;;17.23;10.38;;;;;;;15.60;100.00;100288.44;4949889;28;20472;-75
2021/05/12 09:01:35;;;;;;;22.25;11.07;;;;;;;15.98;100.00;100295.56;4953446;28;20402;-74
2021/05/12 09:04:02;;;;;;;24.55;11.60;;;;;;;16.30;100.00;100305.41;4948909;28;20043;-76
2021/05/12 09:06:28;;;;;;;22.73;12.50;;;;;;;16.20;100.00;100302.34;4950718;28;20034;-76
2021/05/12 09:08:54;;;;;;;25.08;13.48;;;;;;;16.25;99.94;100307.38;4950356;28;20066;-74
2021/05/12 09:11:20;;;;;;;19.80;12.68;;;;;;;16.01;100.00;100305.63;4943574;28;20050;-74
2021/05/12 09:13:48;;;;;;;23.45;12.98;;;;;;;16.16;100.00;100303.56;4952533;28;20043;-75
2021/05/12 09:16:33;;;;;;;26.35;11.93;;;;;;;16.03;100.00;100305.97;4948266;28;20043;-75
2021/05/12 09:19:06;;;;;;;21.00;11.18;;;;;;;16.09;99.76;100304.38;4945495;28;20098;-75
2021/05/12 09:21:44;;;;;;;16.55;9.55;;;;;;;16.16;99.84;100309.00;4948387;28;20118;-74
2021/05/12 09:24:28;;;;;;;16.33;7.95;;;;;;;16.09;100.00;100309.81;4960180;28;20035;-74
2021/05/12 09:26:56;;;;;;;19.02;7.65;;;;;;;16.16;100.00;100315.19;4942760;28;20039;-75
2021/05/12 09:29:30;;;;;;;19.10;8.27;;;;;;;16.41;99.88;100311.50;4945447;28;20033;-75
2021/05/12 09:32:04;;;;;;;24.20;8.90;;;;;;;16.51;99.07;100313.38;4950635;28;20154;-74
2021/05/12 09:34:58;;;;;;;14.38;7.85;;;;;;;16.62;97.68;100308.63;4930975;28;20035;-75
2021/05/12 09:37:27;;;;;;;13.45;6.72;;;;;;;16.55;96.71;100320.31;4949464;28;20039;-74
2021/05/12 09:39:53;;;;;;;15.93;7.57;;;;;;;15.96;99.67;100324.28;4949422;28;20506;-75
2021/05/12 09:42:20;;;;;;;21.33;9.77;;;;;;;16.43;97.72;100323.53;4962024;28;20065;-76
2021/05/12 09:44:46;;;;;;;13.95;8.63;;;;;;;16.46;98.15;100330.09;4939842;28;20050;-74
2021/05/12 09:47:28;;;;;;;17.08;8.63;;;;;;;16.47;98.71;100337.09;4950568;28;20039;-76
2021/05/12 09:49:53;;;;;;;13.95;7.82;;;;;;;16.60;98.26;100330.00;4946383;28;20027;-75
2021/05/12 09:52:29;;;;;;;13.60;7.38;;;;;;;16.47;96.52;100326.22;4950512;28;20420;-75
2021/05/12 09:55:03;;;;;;;18.60;7.40;;;;;;;16.23;97.78;100330.69;4943001;28;20043;-74
2021/05/12 09:57:30;;;;;;;10.05;6.10;;;;;;;16.50;96.83;100330.84;4932836;28;20027;-74
2021/05/12 09:59:56;;;;;;;12.60;6.38;;;;;;;16.71;94.89;100331.44;4938699;28;20035;-74
2021/05/12 10:02:22;;;;;;;15.48;6.65;;;;;;;16.60;96.84;100335.44;4932694;28;20054;-75
2021/05/12 10:04:48;;;;;;;11.73;6.72;;;;;;;16.89;96.32;100320.38;4933790;28;20030;-74
2021/05/12 10:07:20;;;;;;;11.43;6.18;;;;;;;17.07;95.59;100321.72;4935740;28;20506;-74
2021/05/12 10:09:48;;;;;;;;;;;;;;;17.09;95.19;100337.66;4934214;28;20090;-75
2021/05/12 10:12:19;;;;;;;14.70;5.53;;;;;;;17.22;95.12;100335.94;4948628;28;19941;-75
2021/05/12 10:14:53;;;;;;;10.80;5.15;;;;;;;17.22;93.66;100343.31;4955085;28;20035;-75
2021/05/12 10:17:20;;;;;;;10.10;4.82;;;;;;;17.36;90.48;100332.28;4934067;28;20058;-74
2021/05/12 10:19:48;;;;;;;14.30;4.90;;;;;;;17.17;91.77;100342.59;4946502;28;20549;-75
2021/05/12 10:22:14;;;;;;;13.30;4.88;;;;;;;17.00;92.37;100346.28;4947727;28;20101;-74
2021/05/12 10:24:45;;;;;;;16.63;5.07;;;;;;;17.11;90.80;100341.50;4947867;28;20181;-75
2021/05/12 10:27:14;;;;;;;9.80;4.80;;;;;;;16.82;92.46;100353.09;4947622;28;20038;-74
2021/05/12 10:29:42;;;;;;;9.73;4.68;;;;;;;16.60;93.90;100346.31;4950906;28;20081;-75
2021/05/12 10:32:31;;;;;;;10.73;4.90;;;;;;;16.75;93.95;100353.16;4951926;28;20043;-75
2021/05/12 10:35:08;;;;;;;12.32;5.20;;;;;;;16.84;93.18;100345.31;4945911;28;20031;-74
2021/05/12 10:37:47;;;;;;;8.57;4.70;;;;;;;16.69;93.27;100346.59;4949656;28;20102;-74
2021/05/12 10:40:22;;;;;;;11.25;4.80;;;;;;;16.61;94.94;100350.56;4943256;28;20036;-74
2021/05/12 10:43:19;;;;;;;12.30;4.75;;;;;;;16.53;95.86;100347.13;4945661;28;20062;-75
2021/05/12 10:45:58;;;;;;;11.77;4.28;;;;;;;16.69;94.47;100344.66;4944258;28;20047;-75
2021/05/12 10:48:29;;;;;;;8.40;3.92;;;;;;;16.82;93.21;100353.09;4945620;28;20042;-75
2021/05/12 10:50:55;;;;;;;8.70;4.13;;;;;;;16.58;94.74;100354.88;4948400;28;20074;-75
2021/05/12 10:53:24;;;;;;;8.35;4.30;;;;;;;16.53;94.38;100357.25;4946744;28;20054;-75
2021/05/12 10:56:11;;;;;;;7.18;4.18;;;;;;;16.58;95.85;100362.25;4949126;28;20034;-75
2021/05/12 10:58:39;;;;;;;12.13;3.67;;;;;;;16.68;94.48;100364.13;4961119;28;20031;-75
2021/05/12 11:01:09;;;;;;;6.30;3.63;;;;;;;16.79;92.61;100359.34;4945210;28;20049;-75
2021/05/12 11:03:50;;;;;;;6.68;3.38;;;;;;;16.83;92.14;100366.28;4944193;28;20130;-75
2021/05/12 11:06:17;;;;;;;8.13;3.47;;;;;;;16.58;93.61;100359.53;4945893;28;20046;-75
2021/05/12 11:09:06;;;;;;;8.07;3.22;;;;;;;16.83;93.75;100349.97;4953293;28;20031;-75
2021/05/12 11:11:52;;;;;;;6.07;2.60;;;;;;;17.01;92.73;100350.53;4946356;28;20036;-75
2021/05/12 11:14:32;;;;;;;5.75;2.85;;;;;;;17.08;90.64;100352.41;4945077;28;20051;-75
2021/05/12 11:17:08;;;;;;;8.13;3.20;;;;;;;16.87;91.21;100358.88;4959785;28;20514;-76
2021/05/12 11:19:34;;;;;;;6.85;2.75;;;;;;;16.99;90.19;100352.16;4959117;28;20467;-75
2021/05/12 11:24:54;;;;;;;4.93;2.97;;;;;;;16.57;91.46;100347.88;4950026;28;20472;-76